createdAt,value
2022-08-22T00:01:11.864Z,98905.78
2022-08-22T00:02:43.199Z,98743.38
2022-08-22T00:03:09.681Z,98742.78
2022-08-22T00:03:43.636Z,98920.03
2022-08-22T00:06:27.813Z,98925.13
2022-08-22T00:09:05.525Z,98923.06
2022-08-22T00:11:43.913Z,98927.63
2022-08-22T00:14:37.016Z,98925.81
2022-08-22T00:17:11.796Z,98936.50
2022-08-22T00:20:08.310Z,98948.72
2022-08-22T00:23:21.067Z,98948.97
2022-08-22T00:26:05.555Z,98952.78
2022-08-22T00:29:08.257Z,98956.56
2022-08-22T00:31:40.938Z,98960.63
2022-08-22T00:34:17.046Z,98961.63
2022-08-22T00:37:08.981Z,98962.63
2022-08-22T00:39:56.008Z,98964.38
2022-08-22T00:42:37.383Z,98967.63
2022-08-22T00:45:20.423Z,98975.00
2022-08-22T00:48:28.244Z,98979.00
2022-08-22T00:50:59.894Z,98988.91
2022-08-22T00:53:57.618Z,98992.72
2022-08-22T00:56:52.041Z,98997.50
2022-08-22T00:59:26.201Z,99008.19
2022-08-22T01:02:22.187Z,99005.84
2022-08-22T01:05:12.045Z,99008.13
2022-08-22T01:07:55.929Z,99008.34
2022-08-22T01:10:34.226Z,99010.88
2022-08-22T01:13:23.945Z,99016.47
2022-08-22T01:16:03.782Z,99019.00
2022-08-22T01:18:44.639Z,99018.19
2022-08-22T01:21:31.146Z,99024.81
2022-08-22T01:24:24.144Z,99022.25
2022-08-22T01:27:14.405Z,99017.31
2022-08-22T01:29:48.568Z,99024.66
2022-08-22T01:32:44.702Z,99028.47
2022-08-22T01:35:54.615Z,99028.91
2022-08-22T01:38:47.445Z,99033.47
2022-08-22T01:41:54.733Z,99042.38
2022-08-22T01:44:46.699Z,99031.06
2022-08-22T01:47:42.284Z,99031.50
2022-08-22T01:50:32.148Z,99030.44
2022-08-22T01:53:17.745Z,99031.44
2022-08-22T01:56:04.236Z,99035.22
2022-08-22T01:58:37.610Z,99034.91
2022-08-22T02:01:18.296Z,99024.91
2022-08-22T02:03:52.889Z,99031.22
2022-08-22T02:06:34.229Z,99020.19
2022-08-22T02:09:27.782Z,99018.56
2022-08-22T02:12:22.654Z,99022.63
2022-08-22T02:15:06.088Z,99027.94
2022-08-22T02:17:51.623Z,99024.81
2022-08-22T02:20:42.695Z,99024.28
2022-08-22T02:23:52.973Z,99026.81
2022-08-22T02:26:51.047Z,99020.63
2022-08-22T02:29:32.844Z,99020.31
2022-08-22T02:32:19.740Z,99016.66
2022-08-22T02:35:05.081Z,99004.31
2022-08-22T02:38:09.401Z,99016.03
2022-08-22T02:40:43.079Z,99010.84
2022-08-22T02:43:24.626Z,99014.13
2022-08-22T02:46:25.110Z,99012.81
2022-08-22T02:49:27.593Z,99015.09
2022-08-22T02:52:18.995Z,99009.47
2022-08-22T02:54:47.558Z,99005.56
2022-08-22T02:57:21.444Z,99009.16
2022-08-22T03:00:27.738Z,99008.06
2022-08-22T03:03:06.797Z,98994.22
2022-08-22T03:05:38.078Z,98999.31
2022-08-22T03:08:30.334Z,98998.22
2022-08-22T03:11:19.867Z,98997.34
2022-08-22T03:13:57.258Z,98995.53
2022-08-22T03:17:00.809Z,98997.81
2022-08-22T03:19:57.065Z,98993.41
2022-08-22T03:22:53.866Z,98991.78
2022-08-22T03:25:31.316Z,98990.91
2022-08-22T03:28:03.403Z,98982.34
2022-08-22T03:31:02.480Z,98975.84
2022-08-22T03:33:33.039Z,98974.56
2022-08-22T03:36:10.510Z,98975.53
2022-08-22T03:38:50.661Z,98975.97
2022-08-22T03:41:45.683Z,98982.25
2022-08-22T03:44:28.944Z,98966.88
2022-08-22T03:47:18.495Z,98977.25
2022-08-22T03:50:10.020Z,98974.13
2022-08-22T03:53:10.271Z,98975.09
2022-08-22T03:56:09.360Z,98977.56
2022-08-22T03:58:59.571Z,98975.97
2022-08-22T04:01:40.758Z,98971.88
2022-08-22T04:04:12.452Z,98970.56
2022-08-22T04:07:28.421Z,98968.94
2022-08-22T04:10:32.197Z,98971.63
2022-08-22T04:13:33.811Z,98967.91
2022-08-22T04:16:23.495Z,98967.78
2022-08-22T04:19:21.557Z,98966.94
2022-08-22T04:22:11.163Z,98968.88
2022-08-22T04:25:07.530Z,98959.09
2022-08-22T04:28:07.308Z,98961.03
2022-08-22T04:30:48.758Z,98954.09
2022-08-22T04:33:33.093Z,98961.59
2022-08-22T04:36:13.253Z,98955.94
2022-08-22T04:39:23.082Z,98954.63
2022-08-22T04:42:31.285Z,98949.22
2022-08-22T04:45:22.547Z,98953.53
2022-08-22T04:47:57.000Z,98948.31
2022-08-22T04:50:43.209Z,98948.53
2022-08-22T04:53:40.686Z,98949.28
2022-08-22T04:56:53.263Z,98938.22
2022-08-22T04:59:21.896Z,98942.03
2022-08-22T05:01:58.256Z,98935.06
2022-08-22T05:04:54.693Z,98942.97
2022-08-22T05:07:45.285Z,98938.84
2022-08-22T05:10:34.530Z,98945.25
2022-08-22T05:13:11.819Z,98936.59
2022-08-22T05:15:45.491Z,98939.97
2022-08-22T05:18:29.834Z,98935.63
2022-08-22T05:21:03.397Z,98924.09
2022-08-22T05:23:39.747Z,98918.81
2022-08-22T05:26:10.529Z,98922.19
2022-08-22T05:28:55.896Z,98919.91
2022-08-22T05:31:52.739Z,98909.94
2022-08-22T05:34:29.349Z,98904.31
2022-08-22T05:37:11.329Z,98890.75
2022-08-22T05:39:47.982Z,98897.91
2022-08-22T05:42:29.444Z,98902.03
2022-08-22T05:44:58.808Z,98887.19
2022-08-22T05:48:31.698Z,98888.69
2022-08-22T05:51:19.814Z,98873.28
2022-08-22T05:53:54.535Z,98883.47
2022-08-22T05:56:40.573Z,98875.22
2022-08-22T05:59:27.777Z,98870.00
2022-08-22T06:02:01.919Z,98870.63
2022-08-22T06:04:36.249Z,98864.31
2022-08-22T06:07:11.509Z,98868.50
2022-08-22T06:09:49.698Z,98867.03
2022-08-22T06:12:33.205Z,98868.03
2022-08-22T06:15:21.122Z,98856.59
2022-08-22T06:17:53.157Z,98867.31
2022-08-22T06:20:26.834Z,98857.00
2022-08-22T06:23:02.083Z,98855.13
2022-08-22T06:25:40.793Z,98853.63
2022-08-22T06:28:14.307Z,98845.34
2022-08-22T06:30:47.074Z,98841.78
2022-08-22T06:33:22.823Z,98838.19
2022-08-22T06:36:21.806Z,98841.03
2022-08-22T06:39:19.598Z,98829.38
2022-08-22T06:41:56.339Z,98828.06
2022-08-22T06:44:32.738Z,98821.31
2022-08-22T06:47:04.760Z,98813.97
2022-08-22T06:49:36.622Z,98810.38
2022-08-22T06:52:12.643Z,98809.44
2022-08-22T06:54:47.971Z,98814.69
2022-08-22T06:57:36.997Z,98810.53
2022-08-22T07:00:13.413Z,98814.47
2022-08-22T07:02:50.246Z,98815.78
2022-08-22T07:05:24.357Z,98815.59
2022-08-22T07:07:54.049Z,98804.84
2022-08-22T07:10:25.136Z,98802.78
2022-08-22T07:12:58.011Z,98801.09
2022-08-22T07:15:37.669Z,98800.34
2022-08-22T07:18:16.724Z,98790.13
2022-08-22T07:20:55.214Z,98785.03
2022-08-22T07:23:43.524Z,98782.22
2022-08-22T07:26:36.979Z,98786.91
2022-08-22T07:29:22.462Z,98784.84
2022-08-22T07:32:12.930Z,98782.03
2022-08-22T07:34:47.500Z,98780.72
2022-08-22T07:38:02.346Z,98779.41
2022-08-22T07:40:51.983Z,98767.38
2022-08-22T07:43:38.502Z,98763.78
2022-08-22T07:46:13.100Z,98757.94
2022-08-22T07:49:08.514Z,98758.50
2022-08-22T07:51:46.763Z,98764.50
2022-08-22T07:54:31.240Z,98759.41
2022-08-22T07:57:14.688Z,98767.88
2022-08-22T07:59:55.167Z,98769.19
2022-08-22T08:02:26.584Z,98775.59
2022-08-22T08:04:59.159Z,98780.47
2022-08-22T08:07:30.318Z,98781.97
2022-08-22T08:10:13.190Z,98779.16
2022-08-22T08:13:01.750Z,98776.34
2022-08-22T08:15:34.245Z,98779.91
2022-08-22T08:18:10.016Z,98784.03
2022-08-22T08:20:39.449Z,98778.97
2022-08-22T08:23:13.048Z,98774.06
2022-08-22T08:26:06.834Z,98777.09
2022-08-22T08:28:45.491Z,98770.91
2022-08-22T08:31:44.779Z,98768.06
2022-08-22T08:34:26.870Z,98790.09
2022-08-22T08:37:05.411Z,98785.97
2022-08-22T08:39:43.362Z,98792.34
2022-08-22T08:42:32.994Z,98787.66
2022-08-22T08:45:21.051Z,98784.84
2022-08-22T08:48:27.720Z,98792.00
2022-08-22T08:51:17.168Z,98784.50
2022-08-22T08:54:17.098Z,98783.72
2022-08-22T08:57:30.636Z,98778.09
2022-08-22T09:00:15.987Z,98777.91
2022-08-22T09:03:10.416Z,98776.38
2022-08-22T09:05:59.532Z,98768.47
2022-08-22T09:08:37.453Z,98768.28
2022-08-22T09:11:36.856Z,98760.94
2022-08-22T09:14:12.863Z,98741.00
2022-08-22T09:17:00.071Z,98740.78
2022-08-22T09:20:17.744Z,98739.06
2022-08-22T09:23:14.021Z,98736.78
2022-08-22T09:26:02.117Z,98744.28
2022-08-22T09:28:42.325Z,98734.13
2022-08-22T09:31:44.887Z,98735.22
2022-08-22T09:34:26.494Z,98745.53
2022-08-22T09:37:17.669Z,98730.47
2022-08-22T09:40:05.975Z,98733.09
2022-08-22T09:42:52.095Z,98728.78
2022-08-22T09:45:47.046Z,98731.94
2022-08-22T09:48:55.457Z,98724.03
2022-08-22T09:51:39.822Z,98726.66
2022-08-22T09:54:31.222Z,98715.94
2022-08-22T09:57:13.892Z,98714.22
2022-08-22T10:00:25.710Z,98711.22
2022-08-22T10:03:03.294Z,98713.59
2022-08-22T10:05:49.398Z,98713.94
2022-08-22T10:08:49.902Z,98721.44
2022-08-22T10:11:31.690Z,98719.72
2022-08-22T10:14:27.132Z,98720.84
2022-08-22T10:17:13.068Z,98729.09
2022-08-22T10:19:55.427Z,98747.31
2022-08-22T10:22:51.370Z,98754.25
2022-08-22T10:25:36.718Z,98746.13
2022-08-22T10:28:45.291Z,98753.84
2022-08-22T10:32:02.830Z,98759.81
2022-08-22T10:34:42.635Z,98772.91
2022-08-22T10:37:18.153Z,98777.00
2022-08-22T10:40:27.326Z,98780.94
2022-08-22T10:43:05.712Z,98780.16
2022-08-22T10:45:41.571Z,98784.84
2022-08-22T10:48:10.575Z,98776.19
2022-08-22T10:51:17.573Z,98780.31
2022-08-22T10:54:01.574Z,98789.84
2022-08-22T10:56:55.824Z,98782.50
2022-08-22T10:59:39.386Z,98790.75
2022-08-22T11:02:38.068Z,98798.97
2022-08-22T11:05:24.791Z,98805.16
2022-08-22T11:08:23.669Z,98804.97
2022-08-22T11:11:15.498Z,98808.31
2022-08-22T11:14:13.981Z,98811.44
2022-08-22T11:16:57.679Z,98813.28
2022-08-22T11:19:26.222Z,98815.16
2022-08-22T11:22:10.142Z,98819.06
2022-08-22T11:25:05.063Z,98816.78
2022-08-22T11:27:48.330Z,98820.69
2022-08-22T11:30:44.173Z,98825.16
2022-08-22T11:33:19.513Z,98827.75
2022-08-22T11:35:56.185Z,98836.53
2022-08-22T11:38:33.434Z,98847.78
2022-08-22T11:41:08.052Z,98851.91
2022-08-22T11:43:40.273Z,98858.84
2022-08-22T11:46:31.570Z,98858.59
2022-08-22T11:49:27.063Z,98869.66
2022-08-22T11:52:14.108Z,98865.81
2022-08-22T11:55:18.059Z,98862.59
2022-08-22T11:57:54.920Z,98864.97
2022-08-22T12:00:33.451Z,98859.88
2022-08-22T12:03:23.713Z,98858.91
2022-08-22T12:05:58.583Z,98867.91
2022-08-22T12:08:31.195Z,98876.88
2022-08-22T12:11:09.384Z,98874.63
2022-08-22T12:14:06.530Z,98882.84
2022-08-22T12:16:47.377Z,98891.81
2022-08-22T12:19:32.865Z,98893.63
2022-08-22T12:22:34.955Z,98911.81
2022-08-22T12:25:24.851Z,98918.00
2022-08-22T12:28:16.875Z,98921.34
2022-08-22T12:31:00.291Z,98921.88
2022-08-22T12:33:50.530Z,98930.88
2022-08-22T12:36:22.441Z,98928.59
2022-08-22T12:39:40.312Z,98937.56
2022-08-22T12:42:46.706Z,98944.50
2022-08-22T12:45:52.125Z,98942.22
2022-08-22T12:48:39.952Z,98942.75
2022-08-22T12:51:18.324Z,98953.25
2022-08-22T12:54:05.427Z,98966.56
2022-08-22T12:57:23.541Z,98964.28
2022-08-22T13:00:04.915Z,98972.72
2022-08-22T13:02:37.113Z,98983.97
2022-08-22T13:05:26.167Z,98978.88
2022-08-22T13:08:04.145Z,98992.94
2022-08-22T13:10:51.034Z,98990.13
2022-08-22T13:14:18.994Z,98994.25
2022-08-22T13:16:56.016Z,98995.00
2022-08-22T13:19:33.457Z,99013.19
2022-08-22T13:22:13.994Z,99008.84
2022-08-22T13:24:52.340Z,99003.97
2022-08-22T13:27:36.251Z,99018.81
2022-08-22T13:30:12.419Z,99021.63
2022-08-22T13:32:57.957Z,99025.72
2022-08-22T13:35:52.284Z,99027.03
2022-08-22T13:38:57.534Z,99042.38
2022-08-22T13:41:33.073Z,99050.06
2022-08-22T13:44:11.112Z,99071.81
2022-08-22T13:46:52.959Z,99073.84
2022-08-22T13:49:38.789Z,99078.72
2022-08-22T13:52:29.288Z,99075.91
2022-08-22T13:55:21.376Z,99087.91
2022-08-22T13:58:00.365Z,99095.59
2022-08-22T14:00:57.402Z,99100.69
2022-08-22T14:04:28.778Z,99108.38
2022-08-22T14:07:25.476Z,99113.44
2022-08-22T14:09:57.185Z,99115.72
2022-08-22T14:12:51.329Z,99122.13
2022-08-22T14:15:26.049Z,99122.88
2022-08-22T14:18:12.166Z,99122.34
2022-08-22T14:20:43.308Z,99115.41
2022-08-22T14:23:18.909Z,99115.19
2022-08-22T14:25:53.249Z,99117.69
2022-08-22T14:28:36.747Z,99115.66
2022-08-22T14:31:15.334Z,99114.34
2022-08-22T14:33:51.714Z,99117.16
2022-08-22T14:36:29.043Z,99121.50
2022-08-22T14:39:12.986Z,99123.56
2022-08-22T14:42:23.940Z,99115.88
2022-08-22T14:45:07.127Z,99119.44
2022-08-22T14:47:54.951Z,99118.69
2022-08-22T14:50:53.121Z,99117.91
2022-08-22T14:53:22.184Z,99118.69
2022-08-22T14:56:25.098Z,99119.97
2022-08-22T14:59:04.077Z,99127.66
2022-08-22T15:01:37.313Z,99129.72
2022-08-22T15:04:19.258Z,99140.97
2022-08-22T15:06:57.903Z,99145.28
2022-08-22T15:09:34.137Z,99150.16
2022-08-22T15:12:05.601Z,99154.25
2022-08-22T15:14:37.151Z,99155.56
2022-08-22T15:17:10.180Z,99164.75
2022-08-22T15:19:44.950Z,99172.44
2022-08-22T15:22:20.589Z,99181.41
2022-08-22T15:25:02.356Z,99183.47
2022-08-22T15:27:33.839Z,99193.19
2022-08-22T15:30:20.370Z,99204.97
2022-08-22T15:32:50.277Z,99202.16
2022-08-22T15:35:30.685Z,99211.91
2022-08-22T15:38:05.646Z,99209.63
2022-08-22T15:40:45.826Z,99221.41
2022-08-22T15:43:14.446Z,99211.44
2022-08-22T15:45:44.628Z,99222.69
2022-08-22T15:48:37.373Z,99213.78
2022-08-22T15:51:14.514Z,99220.69
2022-08-22T15:53:46.083Z,99219.16
2022-08-22T15:56:17.525Z,99227.59
2022-08-22T15:58:54.254Z,99235.81
2022-08-22T16:01:26.872Z,99239.91
2022-08-22T16:04:09.343Z,99236.34
2022-08-22T16:06:57.619Z,99245.53
2022-08-22T16:09:38.148Z,99249.63
2022-08-22T16:12:13.067Z,99240.44
2022-08-22T16:14:47.327Z,99236.09
2022-08-22T16:17:30.867Z,99240.97
2022-08-22T16:20:19.713Z,99239.69
2022-08-22T16:23:00.342Z,99234.06
2022-08-22T16:25:47.445Z,99226.38
2022-08-22T16:28:57.840Z,99227.16
2022-08-22T16:31:45.361Z,99225.09
2022-08-22T16:34:19.961Z,99228.66
2022-08-22T16:36:54.133Z,99224.34
2022-08-22T16:39:22.603Z,99222.28
2022-08-22T16:42:09.171Z,99227.16
2022-08-22T16:44:59.845Z,99217.19
2022-08-22T16:47:34.617Z,99210.28
2022-08-22T16:50:22.759Z,99201.06
2022-08-22T16:53:03.307Z,99200.31
2022-08-22T16:55:31.803Z,99191.88
2022-08-22T16:58:57.023Z,99184.19
2022-08-22T17:01:47.840Z,99165.06
2022-08-22T17:04:39.216Z,99150.22
2022-08-22T17:07:45.609Z,99141.53
2022-08-22T17:10:36.326Z,99147.16
2022-08-22T17:13:32.858Z,99135.91
2022-08-22T17:16:23.042Z,99137.97
2022-08-22T17:19:29.511Z,99129.31
2022-08-22T17:22:07.946Z,99120.09
2022-08-22T17:24:52.578Z,99121.94
2022-08-22T17:27:21.068Z,99108.41
2022-08-22T17:30:03.637Z,99105.38
2022-08-22T17:32:35.877Z,99101.81
2022-08-22T17:35:35.272Z,99099.00
2022-08-22T17:38:27.156Z,99099.53
2022-08-22T17:41:22.196Z,99096.47
2022-08-22T17:43:56.300Z,99097.75
2022-08-22T17:46:43.476Z,99094.72
2022-08-22T17:49:42.658Z,99089.09
2022-08-22T17:52:32.204Z,99096.00
2022-08-22T17:55:24.818Z,99097.81
2022-08-22T17:57:58.029Z,99097.06
2022-08-22T18:00:34.898Z,99089.69
2022-08-22T18:03:09.429Z,99087.41
2022-08-22T18:05:52.987Z,99093.56
2022-08-22T18:08:38.097Z,99082.88
2022-08-22T18:11:40.202Z,99064.47
2022-08-22T18:14:37.648Z,99065.25
2022-08-22T18:17:20.487Z,99060.16
2022-08-22T18:19:59.415Z,99064.25
2022-08-22T18:22:33.346Z,99061.44
2022-08-22T18:25:12.784Z,99048.91
2022-08-22T18:27:57.032Z,99046.63
2022-08-22T18:30:36.723Z,99042.84
2022-08-22T18:33:53.749Z,99043.38
2022-08-22T18:36:50.181Z,99039.03
2022-08-22T18:39:40.732Z,99033.41
2022-08-22T18:42:24.523Z,99035.47
2022-08-22T18:44:53.067Z,99024.22
2022-08-22T18:47:29.441Z,99025.53
2022-08-22T18:49:58.227Z,99019.69
2022-08-22T18:52:26.710Z,99017.38
2022-08-22T18:55:37.665Z,99011.00
2022-08-22T18:58:37.331Z,99004.69
2022-08-22T19:01:42.315Z,98999.59
2022-08-22T19:04:29.020Z,98997.88
2022-08-22T19:07:31.163Z,98997.63
2022-08-22T19:10:09.249Z,98995.91
2022-08-22T19:12:50.667Z,98992.84
2022-08-22T19:15:47.041Z,98984.72
2022-08-22T19:18:37.436Z,98980.16
2022-08-22T19:21:54.594Z,98973.53
2022-08-22T19:24:29.943Z,98986.56
2022-08-22T19:27:20.058Z,98977.69
2022-08-22T19:29:48.540Z,98975.41
2022-08-22T19:32:47.783Z,98977.25
2022-08-22T19:35:30.150Z,98980.81
2022-08-22T19:38:03.770Z,98984.66
2022-08-22T19:40:47.579Z,98983.16
2022-08-22T19:43:43.053Z,98984.75
2022-08-22T19:46:14.085Z,98976.84
2022-08-22T19:48:51.185Z,98982.78
2022-08-22T19:51:22.735Z,98985.34
2022-08-22T19:54:20.159Z,98985.84
2022-08-22T19:56:49.220Z,98986.91
2022-08-22T19:59:35.269Z,98983.88
2022-08-22T20:02:21.235Z,98989.03
2022-08-22T20:05:11.350Z,98991.59
2022-08-22T20:08:25.485Z,98994.19
2022-08-22T20:11:05.958Z,98995.47
2022-08-22T20:13:36.918Z,98995.75
2022-08-22T20:16:14.537Z,98997.56
2022-08-22T20:19:15.296Z,98994.53
2022-08-22T20:22:01.130Z,98987.19
2022-08-22T20:24:36.520Z,98993.28
2022-08-22T20:27:15.594Z,98998.13
2022-08-22T20:29:52.677Z,98989.72
2022-08-22T20:32:24.294Z,98989.50
2022-08-22T20:34:58.785Z,98989.25
2022-08-22T20:38:05.858Z,98990.03
2022-08-22T20:40:57.742Z,98999.50
2022-08-22T20:44:04.110Z,99002.78
2022-08-22T20:46:53.753Z,99000.00
2022-08-22T20:49:31.365Z,99000.50
2022-08-22T20:52:07.656Z,99008.94
2022-08-22T20:54:40.725Z,99010.97
2022-08-22T20:57:19.215Z,99003.84
2022-08-22T21:00:15.548Z,99003.63
2022-08-22T21:02:58.036Z,99012.03
2022-08-22T21:05:46.102Z,99016.66
2022-08-22T21:08:20.871Z,99017.94
2022-08-22T21:11:21.777Z,99013.59
2022-08-22T21:13:51.446Z,99005.72
2022-08-22T21:16:31.831Z,99014.66
2022-08-22T21:19:02.675Z,99013.13
2022-08-22T21:21:35.609Z,98999.63
2022-08-22T21:24:08.127Z,99008.81
2022-08-22T21:27:02.042Z,99007.28
2022-08-22T21:29:32.682Z,99013.66
2022-08-22T21:32:17.979Z,99012.16
2022-08-22T21:34:49.282Z,99012.16
2022-08-22T21:37:26.221Z,99007.81
2022-08-22T21:40:14.610Z,99012.63
2022-08-22T21:42:47.308Z,99006.28
2022-08-22T21:45:50.678Z,99009.84
2022-08-22T21:48:40.177Z,99012.41
2022-08-22T21:51:42.088Z,99010.88
2022-08-22T21:54:29.292Z,99010.88
2022-08-22T21:57:19.556Z,99005.28
2022-08-22T21:59:59.694Z,99010.88
2022-08-22T22:02:46.712Z,99003.75
2022-08-22T22:05:18.083Z,99010.13
2022-08-22T22:07:48.815Z,99002.47
2022-08-22T22:10:20.066Z,99007.31
2022-08-22T22:12:50.308Z,99002.22
2022-08-22T22:15:26.607Z,98999.44
2022-08-22T22:17:56.160Z,99005.81
2022-08-22T22:20:27.204Z,99007.09
2022-08-22T22:22:56.540Z,99004.50
2022-08-22T22:25:40.704Z,99011.41
2022-08-22T22:28:39.058Z,99007.31
2022-08-22T22:31:08.005Z,99010.13
2022-08-22T22:33:42.905Z,99012.94
2022-08-22T22:36:26.083Z,99018.53
2022-08-22T22:38:56.122Z,99021.34
2022-08-22T22:41:26.526Z,99022.63
2022-08-22T22:43:56.301Z,99032.34
2022-08-22T22:46:27.739Z,99034.91
2022-08-22T22:48:58.034Z,99043.84
2022-08-22T22:51:26.673Z,99036.72
2022-08-22T22:53:57.824Z,99039.50
2022-08-22T22:56:26.612Z,99035.19
2022-08-22T22:58:58.987Z,99032.91
2022-08-22T23:01:30.265Z,99032.16
2022-08-22T23:04:05.716Z,99034.19
2022-08-22T23:06:34.877Z,99029.34
2022-08-22T23:09:03.584Z,99033.44
2022-08-22T23:11:32.508Z,99037.75
2022-08-22T23:14:03.776Z,99034.94
2022-08-22T23:16:37.166Z,99031.91
2022-08-22T23:19:13.888Z,99038.28
2022-08-22T23:21:43.521Z,99031.91
2022-08-22T23:24:13.232Z,99041.09
2022-08-22T23:26:42.625Z,99030.63
2022-08-22T23:29:12.136Z,99026.53
2022-08-22T23:31:44.029Z,99044.13
2022-08-22T23:34:17.647Z,99047.94
2022-08-22T23:36:48.809Z,99050.22
2022-08-22T23:39:18.341Z,99052.25
2022-08-22T23:41:47.733Z,99062.44
2022-08-22T23:44:18.718Z,99061.13
2022-08-22T23:46:47.886Z,99062.91
2022-08-22T23:49:17.418Z,99067.22
2022-08-22T23:51:47.789Z,99072.34
2022-08-22T23:54:16.725Z,99082.50
2022-08-22T23:56:51.683Z,99075.09
2022-08-22T23:59:23.545Z,99077.59
